aviador You're here:

USSS Decoded Metar

SVERDLOVSK in RUSSIA
Report Time2018-02-22 18:00:00
UTC Time2018-02-22 18:24:00
Flight Rules vfr VFR
Wind250° at 8 kt
W.Decomp.*RWY 26: 7.3 kt HW 3.3 kt LCW
W.Rank250° ranks 3
Current wind is below 250° avg. (9.2)
Visibility9999 m
Phenomena:N/A
Clouds:Scattered 033 Hf
Expected CloudBase > 1,200 ft AGL from Temp-Dew spread
CeilingNone
Temp-14°C (ISA -27)
Dew Point-17°C (78% RH)
AAT-20.3°C
QNH1015 hPa
Density Alt-2,743 ft
Elevation764 ft
Report Wrong Elevation
Raw Report
USSS 221800Z 25004MPS 9999 SCT033 M14/M17 Q1015 R26R/410150 NOSIG
RMK QFE740/0987=

Extra information for USSS:More info

Metar Taf Metar & Taf Last 4 Metars F.Rules Stats Wind Profile Meteogram Temp Stats Airport Information Weather charts Add Link Nearby VenuesMetar ALERT Operation Metar Decoded Social comments